Kuwait, Kuwait

12:04 AM AST on September 27, 2016 (GMT +0300)
Kuwait International | | Change Station

Elev 180 ft 29.22 °N, 47.98 °E | Updated 4 minutes ago

Clear
Clear
84 °F
Feels Like 84 °F
N
0
Wind Variable Wind from North

Today
High -- | Low -- °F
--% Chance of Precip.
Yesterday
High -- | Low -- °F
Precip. -- in
Pressure 29.77 in
Visibility -9999.0 miles
Clouds
Dew Point 37 °F
Humidity 19%
Rainfall 0.00 in
Snow Depth Not available.
5:39 AM 5:38 PM
Waning Crescent, 16% visible
METAR OKBK 262100Z 00000KT CAVOK 29/03 Q1008 NOSIG
Pressure 29.77 in
Visibility -9999.0 miles
Clouds
Dew Point 37 °F
Humidity 19%
Rainfall 0.00 in
Snow Depth Not available.
5:39 AM 5:38 PM
Waning Crescent, 16% visible
METAR OKBK 262100Z 00000KT CAVOK 29/03 Q1008 NOSIG

10-Day Weather Forecast

No radar image for this location.
×

Almanac

Astronomy

Sep. 27, 2016 Rise Set
Actual Time
Civil Twilight
Nautical Twilight
Astronomical Twilight
Moon
Length of Visible Light
Length of Day
Tomorrow will be .
, % of the Moon is Illuminated

Today's Extremes

Country Highs Country Lows

Community

WunderPhotos

Upload Photos

1,941,968 photos uploaded!

WunderBlog® & News

Nearby

Air Quality

  Air Quality AQ Index Pollutant
Not available.

Snow Depth

Station Depth Elevation

Earthquake Activity

City Distance Mag. Time & Date
Minimum magnitude displayed is 2.5.

Coastal Water Temperatures

Place Temperature

Stations

Nearby Weather Stations

Station Location Temp. Windchill Dew Point Humidity Wind Precip. Elev Updated Type